createdAt,value
2022-09-09T00:02:02.230Z,4.90
2022-09-09T00:04:37.538Z,3.80
2022-09-09T00:07:44.627Z,4.75
2022-09-09T00:10:40.734Z,4.67
2022-09-09T00:13:27.092Z,4.50
2022-09-09T00:16:25.922Z,4.30
2022-09-09T00:19:16.758Z,3.87
2022-09-09T00:22:05.995Z,5.83
2022-09-09T00:24:48.901Z,5.05
2022-09-09T00:27:44.506Z,6.10
2022-09-09T00:30:24.183Z,5.95
2022-09-09T00:33:14.978Z,7.08
2022-09-09T00:35:51.092Z,6.35
2022-09-09T00:38:50.681Z,4.58
2022-09-09T00:41:39.929Z,3.42
2022-09-09T00:45:00.118Z,4.87
2022-09-09T00:47:44.238Z,4.08
2022-09-09T00:50:45.103Z,4.28
2022-09-09T00:53:38.751Z,4.00
2022-09-09T00:56:30.348Z,5.35
2022-09-09T00:59:14.193Z,6.00
2022-09-09T01:01:47.848Z,7.95
2022-09-09T01:04:25.664Z,4.28
2022-09-09T01:07:04.584Z,4.72
2022-09-09T01:09:45.196Z,5.25
2022-09-09T01:12:30.151Z,5.30
2022-09-09T01:15:17.716Z,4.80
2022-09-09T01:18:10.572Z,5.80
2022-09-09T01:21:23.721Z,4.03
2022-09-09T01:24:26.318Z,5.20
2022-09-09T01:27:10.634Z,3.90
2022-09-09T01:29:43.719Z,5.08
2022-09-09T01:32:48.607Z,7.97
2022-09-09T01:35:47.536Z,5.10
2022-09-09T01:38:21.431Z,4.45
2022-09-09T01:43:30.636Z,4.97
2022-09-09T01:46:04.116Z,4.45
2022-09-09T01:48:38.993Z,4.25
2022-09-09T01:51:14.245Z,4.08
2022-09-09T01:53:47.798Z,4.22
2022-09-09T01:56:36.594Z,7.15
2022-09-09T01:59:50.039Z,5.67
2022-09-09T02:02:31.343Z,6.58
2022-09-09T02:05:40.269Z,3.92
2022-09-09T02:08:25.034Z,4.03
2022-09-09T02:13:40.588Z,6.08
2022-09-09T02:16:44.822Z,5.47
2022-09-09T02:19:29.304Z,4.10
2022-09-09T02:24:39.484Z,6.60
2022-09-09T02:27:20.509Z,4.55
2022-09-09T02:29:53.628Z,5.08
2022-09-09T02:35:04.590Z,5.25
2022-09-09T02:37:40.859Z,6.62
2022-09-09T02:40:17.128Z,5.00
2022-09-09T02:42:52.522Z,5.55
2022-09-09T02:45:32.275Z,4.10
2022-09-09T02:48:45.184Z,5.42
2022-09-09T02:51:46.506Z,5.72
2022-09-09T02:54:40.447Z,5.37
2022-09-09T02:57:22.173Z,4.97
2022-09-09T02:59:56.505Z,5.22
2022-09-09T03:02:30.972Z,6.78
2022-09-09T03:05:06.263Z,6.20
2022-09-09T03:07:40.821Z,5.03
2022-09-09T03:10:15.238Z,13.25
2022-09-09T03:12:48.136Z,5.07
2022-09-09T03:15:21.785Z,5.03
2022-09-09T03:17:56.382Z,8.28
2022-09-09T03:20:31.304Z,7.33
2022-09-09T03:23:06.320Z,7.37
2022-09-09T03:25:40.601Z,7.42
2022-09-09T03:28:13.693Z,4.35
2022-09-09T03:30:47.232Z,5.80
2022-09-09T03:33:22.462Z,5.25
2022-09-09T03:35:57.096Z,5.35
2022-09-09T03:38:30.479Z,10.85
2022-09-09T03:41:05.158Z,6.00
2022-09-09T03:43:39.763Z,5.67
2022-09-09T03:46:13.599Z,5.03
2022-09-09T03:48:46.524Z,5.70
2022-09-09T03:51:19.833Z,8.68
2022-09-09T03:53:55.548Z,6.23
2022-09-09T03:56:28.605Z,7.53
2022-09-09T03:59:03.417Z,5.08
2022-09-09T04:01:36.628Z,6.00
2022-09-09T04:04:10.266Z,5.03
2022-09-09T04:06:43.870Z,5.67
2022-09-09T04:09:18.696Z,5.72
2022-09-09T04:11:53.304Z,5.72
2022-09-09T04:14:29.484Z,5.67
2022-09-09T04:17:06.048Z,6.85
2022-09-09T04:19:39.576Z,4.83
2022-09-09T04:22:13.837Z,4.60
2022-09-09T04:27:32.232Z,7.80
2022-09-09T04:30:05.822Z,4.95
2022-09-09T04:32:39.195Z,5.87
2022-09-09T04:35:12.804Z,5.70
2022-09-09T04:37:46.168Z,6.42
2022-09-09T04:40:19.478Z,4.83
2022-09-09T04:42:52.789Z,5.35
2022-09-09T04:45:25.697Z,6.92
2022-09-09T04:47:58.957Z,5.30
2022-09-09T04:50:33.104Z,5.65
2022-09-09T04:53:08.850Z,7.10
2022-09-09T04:55:43.429Z,5.12
2022-09-09T04:58:17.318Z,6.80
2022-09-09T05:00:53.269Z,6.25
2022-09-09T05:03:27.860Z,6.67
2022-09-09T05:06:12.905Z,5.83
2022-09-09T05:08:46.924Z,4.67
2022-09-09T05:11:27.035Z,7.05
2022-09-09T05:14:02.525Z,6.47
2022-09-09T05:16:36.669Z,8.80
2022-09-09T05:19:10.253Z,15.25
2022-09-09T05:24:18.380Z,6.10
2022-09-09T05:26:52.168Z,5.75
2022-09-09T05:29:25.481Z,11.18
2022-09-09T05:31:58.655Z,7.00
2022-09-09T05:34:31.690Z,11.83
2022-09-09T05:37:06.575Z,5.55
2022-09-09T05:39:41.569Z,4.95
2022-09-09T05:42:15.840Z,6.17
2022-09-09T05:47:24.101Z,5.53
2022-09-09T05:49:58.414Z,6.20
2022-09-09T05:52:33.384Z,6.93
2022-09-09T05:55:08.151Z,5.65
2022-09-09T05:57:41.776Z,5.72
2022-09-09T06:00:16.741Z,9.33
2022-09-09T06:02:55.272Z,7.47
2022-09-09T06:05:30.523Z,4.90
2022-09-09T06:08:05.216Z,6.87
2022-09-09T06:10:40.089Z,5.42
2022-09-09T06:13:13.257Z,8.63
2022-09-09T06:15:55.080Z,6.80
2022-09-09T06:18:28.816Z,5.42
2022-09-09T06:21:07.397Z,5.37
2022-09-09T06:23:43.321Z,5.60
2022-09-09T06:26:19.563Z,5.03
2022-09-09T06:28:55.724Z,5.53
2022-09-09T06:31:32.221Z,6.67
2022-09-09T06:34:10.846Z,5.72
2022-09-09T06:36:47.076Z,5.22
2022-09-09T06:41:54.372Z,6.85
2022-09-09T06:44:47.142Z,7.12
2022-09-09T06:47:21.738Z,4.87
2022-09-09T06:49:57.782Z,4.97
2022-09-09T06:52:32.322Z,5.22
2022-09-09T06:55:07.755Z,6.05
2022-09-09T06:57:42.497Z,5.08
2022-09-09T07:00:18.207Z,4.37
2022-09-09T07:05:26.256Z,8.95
2022-09-09T07:07:59.947Z,3.52
2022-09-09T07:10:35.188Z,4.55
2022-09-09T07:13:09.096Z,4.80
2022-09-09T07:15:42.715Z,5.35
2022-09-09T07:18:17.342Z,5.45
2022-09-09T07:20:58.310Z,4.57
2022-09-09T07:23:36.193Z,3.60
2022-09-09T07:26:13.321Z,4.58
2022-09-09T07:28:47.209Z,7.80
2022-09-09T07:31:28.397Z,6.73
2022-09-09T07:34:04.107Z,3.20
2022-09-09T07:36:41.279Z,3.85
2022-09-09T07:39:16.881Z,5.53
2022-09-09T07:41:52.945Z,5.87
2022-09-09T07:44:28.241Z,4.85
2022-09-09T07:47:07.707Z,5.67
2022-09-09T07:49:42.693Z,2.72
2022-09-09T07:52:18.220Z,5.95
2022-09-09T07:54:51.596Z,5.33
2022-09-09T07:57:24.665Z,7.42
2022-09-09T07:59:59.143Z,4.17
2022-09-09T08:02:33.892Z,2.95
2022-09-09T08:05:08.183Z,3.65
2022-09-09T08:07:42.876Z,4.00
2022-09-09T08:10:17.271Z,3.13
2022-09-09T08:13:14.967Z,5.33
2022-09-09T08:15:31.785Z,3.45
2022-09-09T08:20:40.554Z,4.60
2022-09-09T08:23:15.322Z,8.58
2022-09-09T08:25:50.146Z,3.65
2022-09-09T08:28:24.667Z,1.92
2022-09-09T08:33:30.158Z,5.60
2022-09-09T08:36:05.234Z,1.65
2022-09-09T08:41:48.105Z,2.45
2022-09-09T08:44:48.974Z,5.45
2022-09-09T08:47:58.373Z,3.35
2022-09-09T08:50:42.454Z,2.10
2022-09-09T08:53:35.763Z,2.10
2022-09-09T08:56:19.545Z,2.70
2022-09-09T08:58:57.763Z,2.40
2022-09-09T09:01:52.161Z,2.60
2022-09-09T09:05:00.536Z,2.62
2022-09-09T09:08:09.789Z,4.28
2022-09-09T09:10:53.057Z,6.05
2022-09-09T09:13:43.009Z,1.50
2022-09-09T09:19:17.225Z,2.12
2022-09-09T09:22:23.643Z,2.55
2022-09-09T09:25:19.300Z,2.62
2022-09-09T09:28:02.365Z,2.27
2022-09-09T09:30:43.446Z,3.20
2022-09-09T09:33:25.053Z,2.62
2022-09-09T09:36:00.226Z,1.27
2022-09-09T09:41:10.738Z,1.45
2022-09-09T09:43:47.729Z,2.42
2022-09-09T09:46:35.465Z,1.85
2022-09-09T09:49:12.237Z,1.67
2022-09-09T09:51:45.523Z,1.45
2022-09-09T09:54:33.878Z,2.42
2022-09-09T09:57:18.190Z,1.75
2022-09-09T09:59:53.573Z,1.60
2022-09-09T10:02:29.919Z,3.65
2022-09-09T10:05:27.465Z,1.70
2022-09-09T10:08:14.651Z,1.72
2022-09-09T10:13:48.732Z,2.92
2022-09-09T10:16:42.909Z,3.40
2022-09-09T10:19:34.768Z,1.20
2022-09-09T10:22:28.128Z,8.10
2022-09-09T10:25:40.371Z,1.75
2022-09-09T10:28:48.830Z,1.82
2022-09-09T10:32:02.494Z,3.62
2022-09-09T10:35:01.623Z,0.80
2022-09-09T10:38:00.811Z,2.37
2022-09-09T10:40:43.531Z,4.20
2022-09-09T10:43:39.920Z,1.52
2022-09-09T10:46:46.654Z,2.85
2022-09-09T10:49:52.649Z,2.75
2022-09-09T10:52:52.524Z,4.05
2022-09-09T10:55:47.457Z,2.42
2022-09-09T10:58:37.363Z,1.82
2022-09-09T11:01:18.623Z,1.90
2022-09-09T11:03:59.557Z,2.40
2022-09-09T11:06:37.871Z,9.00
2022-09-09T11:09:33.506Z,3.05
2022-09-09T11:12:06.873Z,3.33
2022-09-09T11:14:45.966Z,1.60
2022-09-09T11:17:28.694Z,3.55
2022-09-09T11:20:02.078Z,2.52
2022-09-09T11:23:08.143Z,2.67
2022-09-09T11:25:48.718Z,3.27
2022-09-09T11:29:04.716Z,2.27
2022-09-09T11:31:58.220Z,7.55
2022-09-09T11:34:51.240Z,2.50
2022-09-09T11:38:00.103Z,2.33
2022-09-09T11:40:34.784Z,3.55
2022-09-09T11:43:14.627Z,5.17
2022-09-09T11:45:50.630Z,3.30
2022-09-09T11:48:48.072Z,3.20
2022-09-09T11:51:32.479Z,1.50
2022-09-09T11:54:32.497Z,1.98
2022-09-09T11:57:06.198Z,1.95
2022-09-09T11:59:39.050Z,2.20
2022-09-09T12:02:27.859Z,2.58
2022-09-09T12:05:10.829Z,2.35
2022-09-09T12:07:59.881Z,2.65
2022-09-09T12:10:38.853Z,1.62
2022-09-09T12:13:20.768Z,4.60
2022-09-09T12:15:56.730Z,1.57
2022-09-09T12:18:45.775Z,3.10
2022-09-09T12:21:28.981Z,4.08
2022-09-09T12:24:07.829Z,4.00
2022-09-09T12:26:58.646Z,1.10
2022-09-09T12:29:51.422Z,4.50
2022-09-09T12:32:30.279Z,1.62
2022-09-09T12:35:17.224Z,3.92
2022-09-09T12:38:04.257Z,3.62
2022-09-09T12:40:38.030Z,3.83
2022-09-09T12:43:25.479Z,4.07
2022-09-09T12:46:05.577Z,4.42
2022-09-09T12:48:43.546Z,3.70
2022-09-09T12:51:29.451Z,3.02
2022-09-09T12:54:04.111Z,3.35
2022-09-09T12:56:37.752Z,1.60
2022-09-09T12:59:15.433Z,4.45
2022-09-09T13:01:50.750Z,5.80
2022-09-09T13:04:24.670Z,3.83
2022-09-09T13:07:10.760Z,2.07
2022-09-09T13:09:45.484Z,2.55
2022-09-09T13:12:22.621Z,2.08
2022-09-09T13:14:57.578Z,2.27
2022-09-09T13:17:50.600Z,3.10
2022-09-09T13:20:23.638Z,1.55
2022-09-09T13:22:57.436Z,2.22
2022-09-09T13:25:31.458Z,2.00
2022-09-09T13:28:06.895Z,2.40
2022-09-09T13:30:45.068Z,5.12
2022-09-09T13:33:23.779Z,3.02
2022-09-09T13:36:04.733Z,5.75
2022-09-09T13:38:57.325Z,4.30
2022-09-09T13:41:40.325Z,3.17
2022-09-09T13:44:29.541Z,2.12
2022-09-09T13:47:10.713Z,4.87
2022-09-09T13:49:45.352Z,1.67
2022-09-09T13:52:20.502Z,9.70
2022-09-09T13:55:06.308Z,3.15
2022-09-09T13:57:41.043Z,2.87
2022-09-09T14:00:16.684Z,4.30
2022-09-09T14:02:50.883Z,1.95
2022-09-09T14:07:56.903Z,5.15
2022-09-09T14:10:31.081Z,10.80
2022-09-09T14:13:05.081Z,5.45
2022-09-09T14:15:38.694Z,5.83
2022-09-09T14:18:18.883Z,6.28
2022-09-09T14:20:51.893Z,3.25
2022-09-09T14:23:25.625Z,4.50
2022-09-09T14:25:59.431Z,3.33
2022-09-09T14:28:54.432Z,2.42
2022-09-09T14:33:41.013Z,4.53
2022-09-09T14:36:16.464Z,3.00
2022-09-09T14:38:49.385Z,4.72
2022-09-09T14:41:23.757Z,3.08
2022-09-09T14:43:56.717Z,3.75
2022-09-09T14:46:29.784Z,2.60
2022-09-09T14:49:02.921Z,4.40
2022-09-09T14:51:38.435Z,2.00
2022-09-09T14:54:13.682Z,3.67
2022-09-09T14:56:48.035Z,4.05
2022-09-09T14:59:21.964Z,6.37
2022-09-09T15:01:55.089Z,4.87
2022-09-09T15:04:47.433Z,5.75
2022-09-09T15:07:21.643Z,8.38
2022-09-09T15:09:56.558Z,4.47
2022-09-09T15:12:30.777Z,6.47
2022-09-09T15:15:05.285Z,7.58
2022-09-09T15:17:38.667Z,6.10
2022-09-09T15:20:35.020Z,5.92
2022-09-09T15:23:09.118Z,4.00
2022-09-09T15:25:54.443Z,5.50
2022-09-09T15:28:27.568Z,6.00
2022-09-09T15:31:01.096Z,5.42
2022-09-09T15:33:34.722Z,3.95
2022-09-09T15:36:23.192Z,6.60
2022-09-09T15:38:56.242Z,3.87
2022-09-09T15:41:29.420Z,9.45
2022-09-09T15:44:02.680Z,9.58
2022-09-09T15:46:40.700Z,5.15
2022-09-09T15:49:20.130Z,7.95
2022-09-09T15:51:58.593Z,4.12
2022-09-09T15:54:33.975Z,7.35
2022-09-09T15:57:09.925Z,9.85
2022-09-09T15:59:42.789Z,9.48
2022-09-09T16:02:15.709Z,7.47
2022-09-09T16:04:48.615Z,7.62
2022-09-09T16:07:21.953Z,7.35
2022-09-09T16:09:55.719Z,8.15
2022-09-09T16:12:29.609Z,11.03
2022-09-09T16:15:02.618Z,8.65
2022-09-09T16:17:37.249Z,5.95
2022-09-09T16:20:13.294Z,6.55
2022-09-09T16:22:46.517Z,11.15
2022-09-09T16:25:19.823Z,7.10
2022-09-09T16:27:54.499Z,6.62
2022-09-09T16:33:01.005Z,7.50
2022-09-09T16:35:35.119Z,10.50
2022-09-09T16:38:10.443Z,11.43
2022-09-09T16:40:43.831Z,12.15
2022-09-09T16:43:18.349Z,8.20
2022-09-09T16:45:52.311Z,10.68
2022-09-09T16:48:25.279Z,15.20
2022-09-09T16:51:08.981Z,15.18
2022-09-09T16:53:53.294Z,14.23
2022-09-09T16:56:27.791Z,14.78
2022-09-09T16:59:03.197Z,10.82
2022-09-09T17:01:38.901Z,13.48
2022-09-09T17:04:17.016Z,11.70
2022-09-09T17:06:55.052Z,13.48
2022-09-09T17:09:30.606Z,18.52
2022-09-09T17:12:05.650Z,12.23
2022-09-09T17:14:39.576Z,14.10
2022-09-09T17:17:30.804Z,13.18
2022-09-09T17:19:47.980Z,10.65
2022-09-09T17:22:21.236Z,9.58
2022-09-09T17:24:54.993Z,12.43
2022-09-09T17:27:28.135Z,11.93
2022-09-09T17:30:01.687Z,13.13
2022-09-09T17:32:36.761Z,13.53
2022-09-09T17:35:10.776Z,12.35
2022-09-09T17:37:45.505Z,12.53
2022-09-09T17:40:19.493Z,16.70
2022-09-09T17:42:53.759Z,18.02
2022-09-09T17:45:27.008Z,13.88
2022-09-09T17:48:00.135Z,15.40
2022-09-09T17:50:35.158Z,14.15
2022-09-09T17:53:08.072Z,13.05
2022-09-09T17:55:41.054Z,14.03
2022-09-09T17:58:15.485Z,11.35
2022-09-09T18:00:49.605Z,13.50
2022-09-09T18:03:23.209Z,15.58
2022-09-09T18:05:59.693Z,12.80
2022-09-09T18:08:36.551Z,9.85
2022-09-09T18:11:08.541Z,8.98
2022-09-09T18:13:41.978Z,8.40
2022-09-09T18:16:15.227Z,9.33
2022-09-09T18:18:50.571Z,10.50
2022-09-09T18:21:23.925Z,11.15
2022-09-09T18:23:57.051Z,10.75
2022-09-09T18:26:30.218Z,7.70
2022-09-09T18:29:07.352Z,9.03
2022-09-09T18:31:40.607Z,9.68
2022-09-09T18:34:15.992Z,5.62
2022-09-09T18:36:52.710Z,6.97
2022-09-09T18:39:29.043Z,6.30
2022-09-09T18:42:03.598Z,9.60
2022-09-09T18:44:37.367Z,4.70
2022-09-09T18:47:11.368Z,5.30
2022-09-09T18:49:46.715Z,7.03
2022-09-09T18:52:19.827Z,5.58
2022-09-09T18:54:54.887Z,6.12
2022-09-09T18:57:27.728Z,5.25
2022-09-09T19:00:01.207Z,7.87
2022-09-09T19:02:34.874Z,8.15
2022-09-09T19:05:30.431Z,7.25
2022-09-09T19:08:04.267Z,4.97
2022-09-09T19:10:43.496Z,7.45
2022-09-09T19:13:17.753Z,5.50
2022-09-09T19:15:51.677Z,6.75
2022-09-09T19:18:25.463Z,4.17
2022-09-09T19:20:59.093Z,4.00
2022-09-09T19:23:33.309Z,6.20
2022-09-09T19:26:11.665Z,4.85
2022-09-09T19:28:50.405Z,5.40
2022-09-09T19:31:24.413Z,4.92
2022-09-09T19:33:58.996Z,12.47
2022-09-09T19:36:32.224Z,4.17
2022-09-09T19:39:06.212Z,8.68
2022-09-09T19:41:39.677Z,7.97
2022-09-09T19:44:15.304Z,5.80
2022-09-09T19:46:48.162Z,12.80
2022-09-09T19:49:21.587Z,8.38
2022-09-09T19:51:56.284Z,9.10
2022-09-09T19:54:29.746Z,6.60
2022-09-09T19:57:02.707Z,7.42
2022-09-09T19:59:36.373Z,11.43
2022-09-09T20:02:10.785Z,8.68
2022-09-09T20:07:17.030Z,7.62
2022-09-09T20:09:50.639Z,12.07
2022-09-09T20:12:23.568Z,7.67
2022-09-09T20:14:56.810Z,12.47
2022-09-09T20:17:31.621Z,7.58
2022-09-09T20:20:06.220Z,9.45
2022-09-09T20:22:40.183Z,9.28
2022-09-09T20:25:15.004Z,9.03
2022-09-09T20:30:21.248Z,9.28
2022-09-09T20:32:55.353Z,7.58
2022-09-09T20:35:29.284Z,11.40
2022-09-09T20:38:03.329Z,8.18
2022-09-09T20:40:40.820Z,23.05
2022-09-09T20:43:14.912Z,7.03
2022-09-09T20:45:47.849Z,9.18
2022-09-09T20:48:21.047Z,8.33
2022-09-09T20:50:54.305Z,15.08
2022-09-09T20:53:27.923Z,9.78
2022-09-09T20:56:03.712Z,7.37
2022-09-09T20:58:37.201Z,8.38
2022-09-09T21:01:13.563Z,11.12
2022-09-09T21:03:47.011Z,8.73
2022-09-09T21:06:20.949Z,7.67
2022-09-09T21:08:54.312Z,8.93
2022-09-09T21:11:28.372Z,10.05
2022-09-09T21:14:02.423Z,7.10
2022-09-09T21:16:36.191Z,5.92
2022-09-09T21:19:09.748Z,8.05
2022-09-09T21:21:43.286Z,8.28
2022-09-09T21:24:17.643Z,7.12
2022-09-09T21:26:51.405Z,8.98
2022-09-09T21:29:24.767Z,9.85
2022-09-09T21:31:58.151Z,8.28
2022-09-09T21:34:32.278Z,5.78
2022-09-09T21:37:05.234Z,9.38
2022-09-09T21:39:39.058Z,6.45
2022-09-09T21:42:11.838Z,8.85
2022-09-09T21:44:45.965Z,8.28
2022-09-09T21:47:19.903Z,5.75
2022-09-09T21:49:53.389Z,7.53
2022-09-09T21:52:26.425Z,8.25
2022-09-09T21:55:20.392Z,15.65
2022-09-09T21:57:53.463Z,6.80
2022-09-09T22:00:26.633Z,7.65
2022-09-09T22:03:03.312Z,5.85
2022-09-09T22:05:38.442Z,6.35
2022-09-09T22:10:46.147Z,5.75
2022-09-09T22:13:20.461Z,7.72
2022-09-09T22:15:55.048Z,5.55
2022-09-09T22:18:30.485Z,7.15
2022-09-09T22:23:41.048Z,7.08
2022-09-09T22:26:15.433Z,6.97
2022-09-09T22:28:50.770Z,5.12
2022-09-09T22:33:57.962Z,6.55
2022-09-09T22:36:32.167Z,7.45
2022-09-09T22:39:06.292Z,4.78
2022-09-09T22:41:39.689Z,6.62
2022-09-09T22:44:12.591Z,5.05
2022-09-09T22:46:46.194Z,8.40
2022-09-09T22:49:19.100Z,6.27
2022-09-09T22:51:52.380Z,5.78
2022-09-09T22:54:25.344Z,7.30
2022-09-09T22:56:58.391Z,5.92
2022-09-09T22:59:32.450Z,8.10
2022-09-09T23:02:05.651Z,5.80
2022-09-09T23:04:39.498Z,8.65
2022-09-09T23:07:12.334Z,7.55
2022-09-09T23:09:46.557Z,5.47
2022-09-09T23:12:22.003Z,5.30
2022-09-09T23:14:57.842Z,6.65
2022-09-09T23:17:31.497Z,5.25
2022-09-09T23:20:07.019Z,5.53
2022-09-09T23:22:40.864Z,7.97
2022-09-09T23:25:13.884Z,5.03
2022-09-09T23:27:47.442Z,7.90
2022-09-09T23:30:21.758Z,5.60
2022-09-09T23:32:54.685Z,8.53
2022-09-09T23:35:28.119Z,5.03
2022-09-09T23:38:02.225Z,5.10
2022-09-09T23:40:38.792Z,7.17
2022-09-09T23:43:11.907Z,6.05
2022-09-09T23:45:45.133Z,7.65
2022-09-09T23:48:18.564Z,5.58
2022-09-09T23:50:51.600Z,4.87
2022-09-09T23:53:25.482Z,5.30
2022-09-09T23:55:59.643Z,6.20
2022-09-09T23:58:35.280Z,5.15
